sensor_id;sensor_type;location;lat;lon;timestamp;pressure;altitude;pressure_sealevel;temperature;humidity
4528;BME280;62320;51.520;6.818;2023-06-04T00:05:07;101589.34;;;14.90;46.50
4528;BME280;62320;51.520;6.818;2023-06-04T00:15:08;101582.44;;;14.77;46.86
4528;BME280;62320;51.520;6.818;2023-06-04T00:25:10;101584.25;;;14.55;48.20
4528;BME280;62320;51.520;6.818;2023-06-04T00:35:12;101591.25;;;14.32;51.79
4528;BME280;62320;51.520;6.818;2023-06-04T00:45:14;101599.06;;;14.12;51.75
4528;BME280;62320;51.520;6.818;2023-06-04T00:55:17;101580.00;;;14.15;51.75
4528;BME280;62320;51.520;6.818;2023-06-04T01:05:26;101579.13;;;14.10;51.89
4528;BME280;62320;51.520;6.818;2023-06-04T01:15:33;101587.81;;;13.76;55.38
4528;BME280;62320;51.520;6.818;2023-06-04T01:25:38;101586.97;;;13.87;54.68
4528;BME280;62320;51.520;6.818;2023-06-04T01:35:40;101586.06;;;13.52;60.56
4528;BME280;62320;51.520;6.818;2023-06-04T01:45:42;101579.16;;;13.55;59.74
4528;BME280;62320;51.520;6.818;2023-06-04T01:55:43;101583.44;;;13.32;57.74
4528;BME280;62320;51.520;6.818;2023-06-04T02:17:08;101584.22;;;13.03;62.49
4528;BME280;62320;51.520;6.818;2023-06-04T02:27:17;101595.50;;;13.09;58.09
4528;BME280;62320;51.520;6.818;2023-06-04T02:37:19;101596.28;;;12.87;64.12
4528;BME280;62320;51.520;6.818;2023-06-04T02:47:20;101604.72;;;12.44;65.30
4528;BME280;62320;51.520;6.818;2023-06-04T02:57:22;101615.09;;;12.50;66.16
4528;BME280;62320;51.520;6.818;2023-06-04T03:07:23;101606.41;;;12.39;65.17
4528;BME280;62320;51.520;6.818;2023-06-04T03:17:26;101608.16;;;12.46;59.36
4528;BME280;62320;51.520;6.818;2023-06-04T03:27:28;101604.63;;;12.29;66.24
4528;BME280;62320;51.520;6.818;2023-06-04T03:37:29;101604.53;;;12.16;64.08
4528;BME280;62320;51.520;6.818;2023-06-04T03:47:31;101608.88;;;12.19;64.54
4528;BME280;62320;51.520;6.818;2023-06-04T03:57:33;101613.28;;;12.34;61.42
4528;BME280;62320;51.520;6.818;2023-06-04T04:07:35;101599.44;;;12.29;61.00
4528;BME280;62320;51.520;6.818;2023-06-04T04:17:37;101602.94;;;12.38;61.31
4528;BME280;62320;51.520;6.818;2023-06-04T04:27:38;101600.41;;;12.50;65.58
4528;BME280;62320;51.520;6.818;2023-06-04T04:37:42;101601.44;;;12.81;63.03
4528;BME280;62320;51.520;6.818;2023-06-04T04:47:43;101607.63;;;13.18;62.56
4528;BME280;62320;51.520;6.818;2023-06-04T04:57:45;101606.00;;;13.71;58.03
4528;BME280;62320;51.520;6.818;2023-06-04T05:07:47;101605.13;;;14.08;61.42
4528;BME280;62320;51.520;6.818;2023-06-04T05:17:48;101626.81;;;14.33;57.66
4528;BME280;62320;51.520;6.818;2023-06-04T05:27:50;101611.97;;;14.68;58.80
4528;BME280;62320;51.520;6.818;2023-06-04T05:37:51;101612.75;;;14.91;55.69
4528;BME280;62320;51.520;6.818;2023-06-04T05:47:55;101616.84;;;15.41;54.01
4528;BME280;62320;51.520;6.818;2023-06-04T05:57:57;101622.66;;;15.79;55.58
4528;BME280;62320;51.520;6.818;2023-06-04T06:07:58;101629.13;;;16.37;54.36
4528;BME280;62320;51.520;6.818;2023-06-04T06:18:00;101629.66;;;16.71;53.63
4528;BME280;62320;51.520;6.818;2023-06-04T06:28:02;101634.91;;;17.37;52.13
4528;BME280;62320;51.520;6.818;2023-06-04T06:38:04;101645.38;;;17.96;51.06
4528;BME280;62320;51.520;6.818;2023-06-04T06:48:06;101650.69;;;18.42;49.02
4528;BME280;62320;51.520;6.818;2023-06-04T06:58:07;101649.25;;;18.73;49.56
4528;BME280;62320;51.520;6.818;2023-06-04T07:08:09;101661.19;;;19.29;45.20
4528;BME280;62320;51.520;6.818;2023-06-04T07:18:10;101659.34;;;19.72;47.10
4528;BME280;62320;51.520;6.818;2023-06-04T07:28:12;101669.19;;;20.00;44.51
4528;BME280;62320;51.520;6.818;2023-06-04T07:38:14;101675.19;;;20.40;44.01
4528;BME280;62320;51.520;6.818;2023-06-04T07:48:16;101666.97;;;21.16;43.47
4528;BME280;62320;51.520;6.818;2023-06-04T07:58:17;101671.72;;;21.33;42.24
4528;BME280;62320;51.520;6.818;2023-06-04T08:08:19;101657.03;;;21.26;42.91
4528;BME280;62320;51.520;6.818;2023-06-04T08:18:20;101662.44;;;21.78;43.55
4528;BME280;62320;51.520;6.818;2023-06-04T08:28:22;101675.75;;;22.26;42.07
4528;BME280;62320;51.520;6.818;2023-06-04T08:38:23;101676.22;;;21.86;37.06
4528;BME280;62320;51.520;6.818;2023-06-04T08:48:25;101669.28;;;22.36;39.97
4528;BME280;62320;51.520;6.818;2023-06-04T08:58:31;101672.88;;;22.85;37.60
4528;BME280;62320;51.520;6.818;2023-06-04T09:08:37;101676.41;;;22.84;37.83
4528;BME280;62320;51.520;6.818;2023-06-04T09:18:41;101677.47;;;23.49;36.53
4528;BME280;62320;51.520;6.818;2023-06-04T09:28:44;101680.38;;;22.95;36.83
4528;BME280;62320;51.520;6.818;2023-06-04T09:38:46;101680.53;;;23.60;37.16
4528;BME280;62320;51.520;6.818;2023-06-04T09:48:47;101680.03;;;23.27;32.76
4528;BME280;62320;51.520;6.818;2023-06-04T09:58:49;101682.75;;;23.03;31.13
4528;BME280;62320;51.520;6.818;2023-06-04T10:08:52;101671.88;;;23.33;34.16
4528;BME280;62320;51.520;6.818;2023-06-04T10:18:55;101674.13;;;22.98;31.06
4528;BME280;62320;51.520;6.818;2023-06-04T10:29:00;101672.72;;;22.88;31.19
4528;BME280;62320;51.520;6.818;2023-06-04T10:39:02;101665.16;;;22.79;34.38
4528;BME280;62320;51.520;6.818;2023-06-04T10:49:04;101661.53;;;22.81;34.44
4528;BME280;62320;51.520;6.818;2023-06-04T10:59:17;101667.19;;;22.46;29.48
4528;BME280;62320;51.520;6.818;2023-06-04T11:09:19;101666.69;;;22.35;32.38
4528;BME280;62320;51.520;6.818;2023-06-04T11:19:21;101648.69;;;22.47;31.26
4528;BME280;62320;51.520;6.818;2023-06-04T11:29:23;101645.00;;;22.51;33.74
4528;BME280;62320;51.520;6.818;2023-06-04T11:39:34;101628.56;;;22.45;34.64
4528;BME280;62320;51.520;6.818;2023-06-04T11:49:36;101642.34;;;22.28;33.79
4528;BME280;62320;51.520;6.818;2023-06-04T11:59:38;101625.53;;;22.31;32.80
4528;BME280;62320;51.520;6.818;2023-06-04T12:09:40;101631.50;;;22.36;33.28
4528;BME280;62320;51.520;6.818;2023-06-04T12:19:49;101617.31;;;22.40;33.50
4528;BME280;62320;51.520;6.818;2023-06-04T12:29:58;101620.78;;;22.42;31.66
4528;BME280;62320;51.520;6.818;2023-06-04T12:40:01;101610.34;;;22.63;31.30
4528;BME280;62320;51.520;6.818;2023-06-04T12:50:02;101606.81;;;22.64;29.11
4528;BME280;62320;51.520;6.818;2023-06-04T13:00:05;101598.50;;;22.75;29.72
4528;BME280;62320;51.520;6.818;2023-06-04T13:10:07;101607.47;;;22.69;30.09
4528;BME280;62320;51.520;6.818;2023-06-04T13:20:09;101587.47;;;22.64;31.04
4528;BME280;62320;51.520;6.818;2023-06-04T13:30:11;101596.28;;;22.63;33.94
4528;BME280;62320;51.520;6.818;2023-06-04T13:40:13;101594.09;;;22.76;32.11
4528;BME280;62320;51.520;6.818;2023-06-04T13:50:15;101594.09;;;22.76;29.94
4528;BME280;62320;51.520;6.818;2023-06-04T14:00:16;101578.94;;;22.81;29.61
4528;BME280;62320;51.520;6.818;2023-06-04T14:10:18;101567.72;;;22.76;31.52
4528;BME280;62320;51.520;6.818;2023-06-04T14:20:19;101559.03;;;22.95;30.98
4528;BME280;62320;51.520;6.818;2023-06-04T14:30:21;101555.06;;;22.84;31.08
4528;BME280;62320;51.520;6.818;2023-06-04T14:40:22;101551.47;;;22.86;32.85
4528;BME280;62320;51.520;6.818;2023-06-04T14:50:24;101562.72;;;22.91;31.99
4528;BME280;62320;51.520;6.818;2023-06-04T15:00:26;101545.31;;;23.09;32.84
4528;BME280;62320;51.520;6.818;2023-06-04T15:10:27;101540.41;;;23.21;30.38
4528;BME280;62320;51.520;6.818;2023-06-04T15:20:29;101535.63;;;23.09;31.63
4528;BME280;62320;51.520;6.818;2023-06-04T15:30:31;101528.13;;;23.20;31.82
4528;BME280;62320;51.520;6.818;2023-06-04T15:40:32;101527.50;;;23.14;32.61
4528;BME280;62320;51.520;6.818;2023-06-04T15:50:34;101525.94;;;23.10;31.05
4528;BME280;62320;51.520;6.818;2023-06-04T16:00:36;101519.00;;;23.07;31.47
4528;BME280;62320;51.520;6.818;2023-06-04T16:10:37;101506.09;;;23.21;30.46
4528;BME280;62320;51.520;6.818;2023-06-04T16:20:39;101499.53;;;23.10;31.25
4528;BME280;62320;51.520;6.818;2023-06-04T16:30:41;101494.72;;;23.19;32.84
4528;BME280;62320;51.520;6.818;2023-06-04T16:40:42;101498.56;;;23.12;33.92
4528;BME280;62320;51.520;6.818;2023-06-04T16:50:44;101505.53;;;23.13;32.13
4528;BME280;62320;51.520;6.818;2023-06-04T17:00:45;101494.38;;;23.07;33.31
4528;BME280;62320;51.520;6.818;2023-06-04T17:10:48;101496.41;;;23.00;31.15
4528;BME280;62320;51.520;6.818;2023-06-04T17:20:50;101484.25;;;22.96;33.89
4528;BME280;62320;51.520;6.818;2023-06-04T17:30:51;101483.28;;;22.99;33.88
4528;BME280;62320;51.520;6.818;2023-06-04T17:40:53;101481.13;;;22.87;33.31
4528;BME280;62320;51.520;6.818;2023-06-04T17:50:55;101484.81;;;22.83;34.50
4528;BME280;62320;51.520;6.818;2023-06-04T18:00:56;101483.94;;;22.82;33.18
4528;BME280;62320;51.520;6.818;2023-06-04T18:10:58;101495.88;;;22.69;35.06
4528;BME280;62320;51.520;6.818;2023-06-04T18:21:00;101504.88;;;22.63;34.23
4528;BME280;62320;51.520;6.818;2023-06-04T18:31:02;101503.47;;;22.53;35.22
4528;BME280;62320;51.520;6.818;2023-06-04T18:41:04;101506.44;;;22.44;35.46
4528;BME280;62320;51.520;6.818;2023-06-04T18:51:06;101495.06;;;22.44;34.53
4528;BME280;62320;51.520;6.818;2023-06-04T19:01:07;101495.22;;;22.39;36.14
4528;BME280;62320;51.520;6.818;2023-06-04T19:11:09;101498.66;;;22.18;35.77
4528;BME280;62320;51.520;6.818;2023-06-04T19:21:13;101505.59;;;21.96;36.96
4528;BME280;62320;51.520;6.818;2023-06-04T19:31:15;101517.78;;;21.72;36.10
4528;BME280;62320;51.520;6.818;2023-06-04T19:41:17;101524.06;;;21.42;36.29
4528;BME280;62320;51.520;6.818;2023-06-04T19:51:18;101534.22;;;21.26;37.68
4528;BME280;62320;51.520;6.818;2023-06-04T20:01:21;101541.38;;;20.94;38.22
4528;BME280;62320;51.520;6.818;2023-06-04T20:11:23;101541.81;;;20.80;37.76
4528;BME280;62320;51.520;6.818;2023-06-04T20:21:25;101543.56;;;20.49;39.03
4528;BME280;62320;51.520;6.818;2023-06-04T20:31:34;101552.84;;;20.31;39.54
4528;BME280;62320;51.520;6.818;2023-06-04T20:41:35;101550.16;;;20.01;39.71
4528;BME280;62320;51.520;6.818;2023-06-04T20:51:37;101565.56;;;19.80;41.13
4528;BME280;62320;51.520;6.818;2023-06-04T21:01:39;101584.22;;;19.68;40.49
4528;BME280;62320;51.520;6.818;2023-06-04T21:11:40;101587.44;;;19.44;40.75
4528;BME280;62320;51.520;6.818;2023-06-04T21:21:42;101597.25;;;18.95;44.02
4528;BME280;62320;51.520;6.818;2023-06-04T21:31:43;101599.97;;;18.90;44.62
4528;BME280;62320;51.520;6.818;2023-06-04T21:41:45;101598.56;;;18.27;48.26
4528;BME280;62320;51.520;6.818;2023-06-04T21:51:47;101608.00;;;18.37;46.76
4528;BME280;62320;51.520;6.818;2023-06-04T22:01:48;101610.59;;;17.90;53.30
4528;BME280;62320;51.520;6.818;2023-06-04T22:11:50;101622.06;;;17.81;54.16
4528;BME280;62320;51.520;6.818;2023-06-04T22:21:51;101627.09;;;17.93;49.35
4528;BME280;62320;51.520;6.818;2023-06-04T22:31:53;101635.56;;;17.55;55.38
4528;BME280;62320;51.520;6.818;2023-06-04T22:41:55;101637.38;;;17.47;51.32
4528;BME280;62320;51.520;6.818;2023-06-04T22:51:56;101635.13;;;17.22;57.53
4528;BME280;62320;51.520;6.818;2023-06-04T23:01:58;101655.97;;;17.25;54.71
4528;BME280;62320;51.520;6.818;2023-06-04T23:11:59;101647.59;;;17.00;55.10
4528;BME280;62320;51.520;6.818;2023-06-04T23:22:01;101646.94;;;16.83;59.48
4528;BME280;62320;51.520;6.818;2023-06-04T23:32:02;101654.69;;;16.89;56.32
4528;BME280;62320;51.520;6.818;2023-06-04T23:42:04;101661.22;;;16.49;59.58
4528;BME280;62320;51.520;6.818;2023-06-04T23:52:06;101665.75;;;16.30;59.21
